createdAt,value
2023-01-21T00:00:45.769Z,87.63
2023-01-21T00:03:13.128Z,87.51
2023-01-21T00:05:40.103Z,87.95
2023-01-21T00:08:07.107Z,87.92
2023-01-21T00:10:34.100Z,87.67
2023-01-21T00:13:00.888Z,87.73
2023-01-21T00:15:27.865Z,87.69
2023-01-21T00:17:54.879Z,87.93
2023-01-21T00:20:21.873Z,87.92
2023-01-21T00:22:48.708Z,87.97
2023-01-21T00:25:15.546Z,87.75
2023-01-21T00:27:42.425Z,87.79
2023-01-21T00:30:10.844Z,87.75
2023-01-21T00:32:37.693Z,87.69
2023-01-21T00:35:06.438Z,87.64
2023-01-21T00:37:33.369Z,87.50
2023-01-21T00:40:00.177Z,87.49
2023-01-21T00:42:28.126Z,87.41
2023-01-21T00:44:58.467Z,87.61
2023-01-21T00:47:25.281Z,87.48
2023-01-21T00:49:52.220Z,87.52
2023-01-21T00:52:19.135Z,87.22
2023-01-21T00:54:46.127Z,87.24
2023-01-21T00:57:13.964Z,87.28
2023-01-21T00:59:41.041Z,87.46
2023-01-21T01:02:09.096Z,87.57
2023-01-21T01:04:36.138Z,87.30
2023-01-21T01:07:03.194Z,87.26
2023-01-21T01:09:30.023Z,87.30
2023-01-21T01:11:57.094Z,87.29
2023-01-21T01:14:23.892Z,87.46
2023-01-21T01:16:50.719Z,87.29
2023-01-21T01:19:17.820Z,87.36
2023-01-21T01:21:44.699Z,87.41
2023-01-21T01:24:11.603Z,87.61
2023-01-21T01:26:39.946Z,87.58
2023-01-21T01:29:10.308Z,87.43
2023-01-21T01:31:37.144Z,87.26
2023-01-21T01:34:04.058Z,87.41
2023-01-21T01:36:30.979Z,87.48
2023-01-21T01:38:59.176Z,87.60
2023-01-21T01:41:28.639Z,87.41
2023-01-21T01:43:59.912Z,87.54
2023-01-21T01:46:28.982Z,87.52
2023-01-21T01:49:01.302Z,87.76
2023-01-21T01:51:37.141Z,87.90
2023-01-21T01:54:06.187Z,87.72
2023-01-21T01:56:32.972Z,87.59
2023-01-21T01:58:59.752Z,87.54
2023-01-21T02:01:26.724Z,87.25
2023-01-21T02:03:59.629Z,87.20
2023-01-21T02:06:26.950Z,87.29
2023-01-21T02:08:54.537Z,87.31
2023-01-21T02:11:21.449Z,87.10
2023-01-21T02:13:51.730Z,87.05
2023-01-21T02:16:32.443Z,86.97
2023-01-21T02:19:17.329Z,87.11
2023-01-21T02:21:47.254Z,87.11
2023-01-21T02:24:58.609Z,87.16
2023-01-21T02:28:18.185Z,87.05
2023-01-21T02:31:06.549Z,86.86
2023-01-21T02:33:52.456Z,87.07
2023-01-21T02:36:44.038Z,87.18
2023-01-21T02:39:50.623Z,87.13
2023-01-21T02:42:40.990Z,86.75
2023-01-21T02:45:41.239Z,86.77
2023-01-21T02:48:12.275Z,86.93
2023-01-21T02:50:44.722Z,87.01
2023-01-21T02:56:18.889Z,86.33
2023-01-21T02:58:49.778Z,86.73
2023-01-21T03:01:45.045Z,86.90
2023-01-21T03:04:30.380Z,86.76
2023-01-21T03:07:16.323Z,86.60
2023-01-21T03:09:45.025Z,86.53
2023-01-21T03:12:30.473Z,86.44
2023-01-21T03:15:20.146Z,86.43
2023-01-21T03:17:51.501Z,86.52
2023-01-21T03:20:31.319Z,86.47
2023-01-21T03:23:01.588Z,86.72
2023-01-21T03:25:28.628Z,87.02
2023-01-21T03:27:55.311Z,86.95
2023-01-21T03:30:22.703Z,86.80
2023-01-21T03:32:49.951Z,86.67
2023-01-21T03:35:20.359Z,86.83
2023-01-21T03:37:47.524Z,86.72
2023-01-21T03:40:21.630Z,86.74
2023-01-21T03:42:50.776Z,86.76
2023-01-21T03:45:19.266Z,86.63
2023-01-21T03:47:50.674Z,86.65
2023-01-21T03:50:19.441Z,86.66
2023-01-21T03:52:46.417Z,86.63
2023-01-21T03:55:13.553Z,86.86
2023-01-21T03:57:40.301Z,86.67
2023-01-21T04:00:17.514Z,86.75
2023-01-21T04:02:44.625Z,86.86
2023-01-21T04:05:12.391Z,87.00
2023-01-21T04:07:39.148Z,87.07
2023-01-21T04:10:06.328Z,87.23
2023-01-21T04:12:33.632Z,87.11
2023-01-21T04:15:00.487Z,86.78
2023-01-21T04:17:28.345Z,86.42
2023-01-21T04:19:55.265Z,86.50
2023-01-21T04:22:22.066Z,86.52
2023-01-21T04:24:48.783Z,86.77
2023-01-21T04:27:15.464Z,86.73
2023-01-21T04:29:42.141Z,86.45
2023-01-21T04:32:08.821Z,86.21
2023-01-21T04:34:35.585Z,86.20
2023-01-21T04:37:02.379Z,86.10
2023-01-21T04:39:29.210Z,86.12
2023-01-21T04:41:55.840Z,85.83
2023-01-21T04:44:22.594Z,85.69
2023-01-21T04:46:49.290Z,85.77
2023-01-21T04:49:15.984Z,85.77
2023-01-21T04:51:42.914Z,85.75
2023-01-21T04:54:10.509Z,85.82
2023-01-21T04:56:37.202Z,85.70
2023-01-21T04:59:04.007Z,85.42
2023-01-21T05:01:30.856Z,85.35
2023-01-21T05:03:57.633Z,85.49
2023-01-21T05:06:24.491Z,85.66
2023-01-21T05:08:51.200Z,85.84
2023-01-21T05:11:18.286Z,85.62
2023-01-21T05:13:45.015Z,85.57
2023-01-21T05:16:11.836Z,85.79
2023-01-21T05:18:38.694Z,85.77
2023-01-21T05:21:05.843Z,85.78
2023-01-21T05:23:32.712Z,85.74
2023-01-21T05:25:59.631Z,85.38
2023-01-21T05:28:26.372Z,85.16
2023-01-21T05:30:53.169Z,85.33
2023-01-21T05:33:26.208Z,85.63
2023-01-21T05:35:53.060Z,85.68
2023-01-21T05:38:20.346Z,85.45
2023-01-21T05:40:47.133Z,85.30
2023-01-21T05:43:13.976Z,85.14
2023-01-21T05:45:40.734Z,85.23
2023-01-21T05:48:07.578Z,85.38
2023-01-21T05:50:34.300Z,85.50
2023-01-21T05:53:01.151Z,85.50
2023-01-21T05:55:27.869Z,85.44
2023-01-21T05:57:54.691Z,85.30
2023-01-21T06:00:21.881Z,85.49
2023-01-21T06:02:48.534Z,85.57
2023-01-21T06:05:15.363Z,85.55
2023-01-21T06:07:42.118Z,85.71
2023-01-21T06:10:09.351Z,85.66
2023-01-21T06:12:36.061Z,85.45
2023-01-21T06:15:03.041Z,85.60
2023-01-21T06:17:29.776Z,85.70
2023-01-21T06:19:56.515Z,85.82
2023-01-21T06:22:23.669Z,85.86
2023-01-21T06:24:50.327Z,85.58
2023-01-21T06:27:17.016Z,85.62
2023-01-21T06:29:44.104Z,85.76
2023-01-21T06:32:10.908Z,85.93
2023-01-21T06:34:37.712Z,86.02
2023-01-21T06:37:04.551Z,85.86
2023-01-21T06:39:31.357Z,85.87
2023-01-21T06:41:58.007Z,85.90
2023-01-21T06:44:24.782Z,85.95
2023-01-21T06:47:00.645Z,85.94
2023-01-21T06:49:28.047Z,86.02
2023-01-21T06:51:54.901Z,85.76
2023-01-21T06:54:21.833Z,85.42
2023-01-21T06:56:48.691Z,85.43
2023-01-21T06:59:15.359Z,85.48
2023-01-21T07:01:42.170Z,85.52
2023-01-21T07:04:09.110Z,85.40
2023-01-21T07:06:36.078Z,85.26
2023-01-21T07:09:04.009Z,85.28
2023-01-21T07:11:31.072Z,85.24
2023-01-21T07:13:57.889Z,85.43
2023-01-21T07:16:24.923Z,85.40
2023-01-21T07:18:51.904Z,85.33
2023-01-21T07:21:18.633Z,85.41
2023-01-21T07:23:46.748Z,85.36
2023-01-21T07:26:13.557Z,85.47
2023-01-21T07:28:41.542Z,85.25
2023-01-21T07:31:08.933Z,85.56
2023-01-21T07:33:35.951Z,85.63
2023-01-21T07:36:02.710Z,85.71
2023-01-21T07:38:29.448Z,85.68
2023-01-21T07:40:56.287Z,85.53
2023-01-21T07:43:23.058Z,85.13
2023-01-21T07:45:50.898Z,84.59
2023-01-21T07:48:17.685Z,84.77
2023-01-21T07:50:44.705Z,84.99
2023-01-21T07:53:15.276Z,84.90
2023-01-21T07:55:42.222Z,84.85
2023-01-21T07:58:10.807Z,84.91
2023-01-21T08:00:37.653Z,85.06
2023-01-21T08:03:04.351Z,85.24
2023-01-21T08:05:31.161Z,85.04
2023-01-21T08:07:58.410Z,84.58
2023-01-21T08:10:25.297Z,84.72
2023-01-21T08:12:52.083Z,84.87
2023-01-21T08:15:19.315Z,85.14
2023-01-21T08:17:47.804Z,85.25
2023-01-21T08:20:14.964Z,85.43
2023-01-21T08:22:41.691Z,85.27
2023-01-21T08:25:08.836Z,85.00
2023-01-21T08:27:35.677Z,84.89
2023-01-21T08:30:02.524Z,85.20
2023-01-21T08:32:30.384Z,85.37
2023-01-21T08:34:57.346Z,85.45
2023-01-21T08:37:24.183Z,85.47
2023-01-21T08:39:51.032Z,85.43
2023-01-21T08:42:17.867Z,85.13
2023-01-21T08:44:46.129Z,85.45
2023-01-21T08:47:12.945Z,85.40
2023-01-21T08:49:39.923Z,85.07
2023-01-21T08:52:07.178Z,85.00
2023-01-21T08:54:34.226Z,84.83
2023-01-21T08:57:01.000Z,84.93
2023-01-21T08:59:30.195Z,84.80
2023-01-21T09:01:56.900Z,84.97
2023-01-21T09:04:23.847Z,84.95
2023-01-21T09:06:50.587Z,84.85
2023-01-21T09:09:17.542Z,85.11
2023-01-21T09:11:44.271Z,85.22
2023-01-21T09:14:10.964Z,85.23
2023-01-21T09:16:37.826Z,85.31
2023-01-21T09:19:04.567Z,85.37
2023-01-21T09:21:31.713Z,85.44
2023-01-21T09:23:58.499Z,85.38
2023-01-21T09:26:25.324Z,85.71
2023-01-21T09:29:01.197Z,85.86
2023-01-21T09:31:28.521Z,86.00
2023-01-21T09:33:56.411Z,85.97
2023-01-21T09:36:24.368Z,86.13
2023-01-21T09:38:51.215Z,85.90
2023-01-21T09:41:27.273Z,85.87
2023-01-21T09:43:56.852Z,85.82
2023-01-21T09:46:33.555Z,85.63
2023-01-21T09:49:00.813Z,85.23
2023-01-21T09:51:34.011Z,85.42
2023-01-21T09:54:02.080Z,85.45
2023-01-21T09:56:34.556Z,85.54
2023-01-21T09:59:03.729Z,85.60
2023-01-21T10:01:34.097Z,85.61
2023-01-21T10:04:16.400Z,85.50
2023-01-21T10:06:51.625Z,85.22
2023-01-21T10:09:18.364Z,85.08
2023-01-21T10:11:48.281Z,84.92
2023-01-21T10:14:24.318Z,85.17
2023-01-21T10:16:57.156Z,85.35
2023-01-21T10:19:28.558Z,85.25
2023-01-21T10:22:02.653Z,85.00
2023-01-21T10:24:30.944Z,84.57
2023-01-21T10:26:57.683Z,84.54
2023-01-21T10:29:24.543Z,84.65
2023-01-21T10:31:54.611Z,84.91
2023-01-21T10:34:21.485Z,85.05
2023-01-21T10:36:48.164Z,85.29
2023-01-21T10:39:17.942Z,85.48
2023-01-21T10:41:57.030Z,85.58
2023-01-21T10:44:42.656Z,85.90
2023-01-21T10:47:27.945Z,86.13
2023-01-21T10:49:57.959Z,86.17
2023-01-21T10:52:26.863Z,86.11
2023-01-21T10:54:53.511Z,86.01
2023-01-21T10:57:27.496Z,85.96
2023-01-21T10:59:54.251Z,86.09
2023-01-21T11:02:22.345Z,86.39
2023-01-21T11:04:49.003Z,86.27
2023-01-21T11:07:17.214Z,86.56
2023-01-21T11:09:45.991Z,86.51
2023-01-21T11:12:13.813Z,86.42
2023-01-21T11:14:40.520Z,86.35
2023-01-21T11:17:07.714Z,86.04
2023-01-21T11:19:34.490Z,86.47
2023-01-21T11:22:05.669Z,87.00
2023-01-21T11:24:33.165Z,86.95
2023-01-21T11:27:00.852Z,87.01
2023-01-21T11:29:28.626Z,86.72
2023-01-21T11:32:16.520Z,86.90
2023-01-21T11:34:44.252Z,87.26
2023-01-21T11:37:11.209Z,87.18
2023-01-21T11:39:46.994Z,87.29
2023-01-21T11:42:14.266Z,87.56
2023-01-21T11:44:53.377Z,87.42
2023-01-21T11:47:28.155Z,87.31
2023-01-21T11:49:54.879Z,87.44
2023-01-21T11:52:21.610Z,87.36
2023-01-21T11:54:48.391Z,87.49
2023-01-21T11:57:20.949Z,87.53
2023-01-21T11:59:47.980Z,87.41
2023-01-21T12:02:18.734Z,87.37
2023-01-21T12:04:49.964Z,87.55
2023-01-21T12:07:20.195Z,87.60
2023-01-21T12:10:10.308Z,87.76
2023-01-21T12:12:40.618Z,87.81
2023-01-21T12:15:13.681Z,87.57
2023-01-21T12:17:52.752Z,87.89
2023-01-21T12:20:34.178Z,88.12
2023-01-21T12:23:03.952Z,88.06
2023-01-21T12:26:00.197Z,88.17
2023-01-21T12:28:45.337Z,88.36
2023-01-21T12:31:27.716Z,88.35
2023-01-21T12:34:10.720Z,88.45
2023-01-21T12:36:41.770Z,88.81
2023-01-21T12:39:22.476Z,89.14
2023-01-21T12:41:51.661Z,89.20
2023-01-21T12:44:22.585Z,89.25
2023-01-21T12:46:49.944Z,89.41
2023-01-21T12:49:21.723Z,89.58
2023-01-21T12:51:53.637Z,89.83
2023-01-21T12:54:23.750Z,89.63
2023-01-21T12:57:09.674Z,89.77
2023-01-21T12:59:44.344Z,89.72
2023-01-21T13:02:17.350Z,90.07
2023-01-21T13:04:57.658Z,90.25
2023-01-21T13:07:43.434Z,90.61
2023-01-21T13:10:20.493Z,90.81
2023-01-21T13:12:49.605Z,90.47
2023-01-21T13:15:23.895Z,90.34
2023-01-21T13:17:52.382Z,90.67
2023-01-21T13:20:20.107Z,90.97
2023-01-21T13:22:59.719Z,91.17
2023-01-21T13:25:35.267Z,91.19
2023-01-21T13:28:05.456Z,91.13
2023-01-21T13:30:40.888Z,91.42
2023-01-21T13:33:07.639Z,91.53
2023-01-21T13:35:34.317Z,91.90
2023-01-21T13:38:13.279Z,91.93
2023-01-21T13:40:46.133Z,92.00
2023-01-21T13:43:47.855Z,91.70
2023-01-21T13:47:14.407Z,91.95
2023-01-21T13:50:02.584Z,92.29
2023-01-21T13:52:36.046Z,92.47
2023-01-21T13:55:06.559Z,92.46
2023-01-21T13:57:51.866Z,92.20
2023-01-21T14:00:33.969Z,92.05
2023-01-21T14:03:10.094Z,92.24
2023-01-21T14:06:10.751Z,92.44
2023-01-21T14:08:53.068Z,92.67
2023-01-21T14:11:30.250Z,92.28
2023-01-21T14:14:03.385Z,91.95
2023-01-21T14:16:42.591Z,91.97
2023-01-21T14:23:16.779Z,92.34
2023-01-21T14:25:43.734Z,92.12
2023-01-21T14:28:26.482Z,91.85
2023-01-21T14:31:12.509Z,92.32
2023-01-21T14:33:44.494Z,92.38
2023-01-21T14:36:47.788Z,92.51
2023-01-21T14:39:58.041Z,92.56
2023-01-21T14:42:40.737Z,92.52
2023-01-21T14:45:08.408Z,92.77
2023-01-21T14:47:35.074Z,92.96
2023-01-21T14:50:01.785Z,93.24
2023-01-21T14:52:36.678Z,93.38
2023-01-21T14:55:16.599Z,93.12
2023-01-21T14:57:43.602Z,92.90
2023-01-21T15:00:12.180Z,93.04
2023-01-21T15:02:43.165Z,93.43
2023-01-21T15:05:10.144Z,93.84
2023-01-21T15:07:40.767Z,93.80
2023-01-21T15:10:31.296Z,93.40
2023-01-21T15:14:34.572Z,93.26
2023-01-21T15:17:01.503Z,93.32
2023-01-21T15:19:33.428Z,93.28
2023-01-21T15:22:01.786Z,92.87
2023-01-21T15:24:33.292Z,92.63
2023-01-21T15:27:15.543Z,92.97
2023-01-21T15:29:43.460Z,93.36
2023-01-21T15:32:35.795Z,93.29
2023-01-21T15:35:25.717Z,93.06
2023-01-21T15:37:59.368Z,93.00
2023-01-21T15:40:28.359Z,93.23
2023-01-21T15:43:01.143Z,93.27
2023-01-21T15:45:47.039Z,93.18
2023-01-21T15:48:42.734Z,93.20
2023-01-21T15:51:15.802Z,93.45
2023-01-21T15:54:07.592Z,93.48
2023-01-21T15:57:12.922Z,93.49
2023-01-21T16:00:47.217Z,93.45
2023-01-21T16:03:34.364Z,93.78
2023-01-21T16:06:36.614Z,94.08
2023-01-21T16:13:53.324Z,93.92
2023-01-21T16:16:28.050Z,94.17
2023-01-21T16:18:59.661Z,94.48
2023-01-21T16:21:32.711Z,94.67
2023-01-21T16:24:00.845Z,94.42
2023-01-21T16:26:31.912Z,94.25
2023-01-21T16:29:02.299Z,94.49
2023-01-21T16:31:29.335Z,94.46
2023-01-21T16:33:56.622Z,94.54
2023-01-21T16:36:23.527Z,94.34
2023-01-21T16:38:50.761Z,94.21
2023-01-21T16:41:19.991Z,94.45
2023-01-21T16:43:53.242Z,95.00
2023-01-21T16:46:34.811Z,95.06
2023-01-21T16:49:04.976Z,94.91
2023-01-21T16:51:36.099Z,94.64
2023-01-21T16:54:25.350Z,94.79
2023-01-21T16:57:00.275Z,95.09
2023-01-21T16:59:34.223Z,95.14
2023-01-21T17:02:01.132Z,95.12
2023-01-21T17:04:28.469Z,94.97
2023-01-21T17:06:55.308Z,95.14
2023-01-21T17:09:30.516Z,95.22
2023-01-21T17:11:57.482Z,94.99
2023-01-21T17:14:26.997Z,94.95
2023-01-21T17:16:54.719Z,95.07
2023-01-21T17:19:31.674Z,95.45
2023-01-21T17:22:00.530Z,95.31
2023-01-21T17:24:38.525Z,95.14
2023-01-21T17:27:18.686Z,95.02
2023-01-21T17:29:45.566Z,95.36
2023-01-21T17:32:27.348Z,95.73
2023-01-21T17:35:10.657Z,95.45
2023-01-21T17:37:44.084Z,95.30
2023-01-21T17:40:24.921Z,95.47
2023-01-21T17:42:51.963Z,95.71
2023-01-21T17:45:33.050Z,95.94
2023-01-21T17:48:11.025Z,95.80
2023-01-21T17:50:38.961Z,95.50
2023-01-21T17:53:07.486Z,95.34
2023-01-21T17:55:36.091Z,95.38
2023-01-21T17:58:05.771Z,95.49
2023-01-21T18:00:36.183Z,95.35
2023-01-21T18:03:03.253Z,95.14
2023-01-21T18:05:30.514Z,95.36
2023-01-21T18:07:57.651Z,95.59
2023-01-21T18:10:27.174Z,95.53
2023-01-21T18:13:00.041Z,95.20
2023-01-21T18:15:27.242Z,95.12
2023-01-21T18:17:56.218Z,95.51
2023-01-21T18:20:25.069Z,95.55
2023-01-21T18:22:53.045Z,95.47
2023-01-21T18:25:20.524Z,95.44
2023-01-21T18:27:51.957Z,95.47
2023-01-21T18:30:20.328Z,95.98
2023-01-21T18:32:47.359Z,96.09
2023-01-21T18:35:15.514Z,96.10
2023-01-21T18:37:42.909Z,96.30
2023-01-21T18:40:15.848Z,96.59
2023-01-21T18:42:42.768Z,97.08
2023-01-21T18:45:20.454Z,96.96
2023-01-21T18:47:48.303Z,97.00
2023-01-21T18:50:20.790Z,97.24
2023-01-21T18:52:48.142Z,97.44
2023-01-21T18:55:16.073Z,97.37
2023-01-21T18:57:43.992Z,97.29
2023-01-21T19:00:24.594Z,97.50
2023-01-21T19:02:55.988Z,97.75
2023-01-21T19:05:28.065Z,97.79
2023-01-21T19:07:55.503Z,97.47
2023-01-21T19:10:22.463Z,97.36
2023-01-21T19:12:49.535Z,97.66
2023-01-21T19:15:18.500Z,97.67
2023-01-21T19:17:45.447Z,97.38
2023-01-21T19:20:17.562Z,97.40
2023-01-21T19:22:45.567Z,97.46
2023-01-21T19:25:12.630Z,97.49
2023-01-21T19:27:42.231Z,97.55
2023-01-21T19:30:19.348Z,97.16
2023-01-21T19:32:46.967Z,96.78
2023-01-21T19:35:18.249Z,97.12
2023-01-21T19:37:45.780Z,97.26
2023-01-21T19:40:17.509Z,96.95
2023-01-21T19:42:44.999Z,97.00
2023-01-21T19:45:12.299Z,97.08
2023-01-21T19:47:41.870Z,97.29
2023-01-21T19:50:17.993Z,97.49
2023-01-21T19:52:45.783Z,97.19
2023-01-21T19:55:17.427Z,97.32
2023-01-21T19:57:45.816Z,97.43
2023-01-21T20:00:26.983Z,97.50
2023-01-21T20:02:54.454Z,97.34
2023-01-21T20:05:21.710Z,97.56
2023-01-21T20:07:49.541Z,97.77
2023-01-21T20:10:17.523Z,97.85
2023-01-21T20:12:44.783Z,97.69
2023-01-21T20:15:16.494Z,97.26
2023-01-21T20:17:47.995Z,97.54
2023-01-21T20:20:25.584Z,97.82
2023-01-21T20:22:52.565Z,97.47
2023-01-21T20:25:21.836Z,97.34
2023-01-21T20:27:53.627Z,97.34
2023-01-21T20:30:22.349Z,97.60
2023-01-21T20:32:49.854Z,97.80
2023-01-21T20:35:17.408Z,97.68
2023-01-21T20:37:51.880Z,97.42
2023-01-21T20:40:23.377Z,97.89
2023-01-21T20:42:50.659Z,97.84
2023-01-21T20:45:18.486Z,97.83
2023-01-21T20:47:50.017Z,97.58
2023-01-21T20:50:35.399Z,97.80
2023-01-21T20:53:03.692Z,97.83
2023-01-21T20:55:31.124Z,98.23
2023-01-21T20:57:57.998Z,97.71
2023-01-21T21:00:27.190Z,97.58
2023-01-21T21:02:57.733Z,97.80
2023-01-21T21:05:25.791Z,98.38
2023-01-21T21:07:53.048Z,98.05
2023-01-21T21:10:21.280Z,97.57
2023-01-21T21:12:48.758Z,97.45
2023-01-21T21:15:16.320Z,97.57
2023-01-21T21:17:43.887Z,97.55
2023-01-21T21:20:18.092Z,97.25
2023-01-21T21:22:45.472Z,96.99
2023-01-21T21:25:17.264Z,97.21
2023-01-21T21:27:44.760Z,97.09
2023-01-21T21:30:16.797Z,97.08
2023-01-21T21:32:43.659Z,96.40
2023-01-21T21:35:24.560Z,96.17
2023-01-21T21:37:51.765Z,96.29
2023-01-21T21:40:23.064Z,96.91
2023-01-21T21:43:08.811Z,96.47
2023-01-21T21:45:36.537Z,95.79
2023-01-21T21:48:22.831Z,95.41
2023-01-21T21:50:58.805Z,95.62
2023-01-21T21:53:25.809Z,95.82
2023-01-21T21:55:52.773Z,95.76
2023-01-21T21:58:19.602Z,95.41
2023-01-21T22:00:46.675Z,95.28
2023-01-21T22:03:13.603Z,95.35
2023-01-21T22:05:40.403Z,95.75
2023-01-21T22:08:08.616Z,95.71
2023-01-21T22:10:35.404Z,95.08
2023-01-21T22:13:02.443Z,94.54
2023-01-21T22:15:29.358Z,94.56
2023-01-21T22:17:56.152Z,94.83
2023-01-21T22:20:22.969Z,95.21
2023-01-21T22:22:49.739Z,94.75
2023-01-21T22:25:16.848Z,94.46
2023-01-21T22:27:45.000Z,94.63
2023-01-21T22:30:12.728Z,95.15
2023-01-21T22:32:39.468Z,95.11
2023-01-21T22:35:06.959Z,94.52
2023-01-21T22:37:33.670Z,94.54
2023-01-21T22:40:00.474Z,94.13
2023-01-21T22:42:27.374Z,94.55
2023-01-21T22:44:54.224Z,94.62
2023-01-21T22:47:20.951Z,94.74
2023-01-21T22:49:49.397Z,94.43
2023-01-21T22:52:16.200Z,94.12
2023-01-21T22:54:43.181Z,94.15
2023-01-21T22:57:09.992Z,94.31
2023-01-21T22:59:37.113Z,94.01
2023-01-21T23:02:03.901Z,94.04
2023-01-21T23:04:30.677Z,94.21
2023-01-21T23:06:57.760Z,94.68
2023-01-21T23:09:24.691Z,94.62
2023-01-21T23:11:52.820Z,94.31
2023-01-21T23:14:19.796Z,94.71
2023-01-21T23:16:46.752Z,95.27
2023-01-21T23:19:13.705Z,95.37
2023-01-21T23:21:40.637Z,95.48
2023-01-21T23:24:07.723Z,95.52
2023-01-21T23:26:34.541Z,95.21
2023-01-21T23:29:01.337Z,95.34
2023-01-21T23:31:28.219Z,95.64
2023-01-21T23:33:56.317Z,95.79
2023-01-21T23:36:23.285Z,95.71
2023-01-21T23:38:50.075Z,95.34
2023-01-21T23:41:17.160Z,95.73
2023-01-21T23:43:44.072Z,95.77
2023-01-21T23:46:13.010Z,96.00
2023-01-21T23:48:39.832Z,95.90
2023-01-21T23:51:08.260Z,95.75
2023-01-21T23:53:35.084Z,95.61
2023-01-21T23:56:14.274Z,95.93
2023-01-21T23:58:41.331Z,95.94
